Nearby METAR Reports

 

KMTN - Baltimore/Martin, Maryland, USA
Distance from station: SSE 8mi, 13km
Updated: Thu, 02-Apr-2015 12:06am EDT
Clear
Clear
 Wind from calm
Wind: Calm
Temperature: 41°F , 5°C
Dew Point: 36°F , 2°C
Humidity: 81%
Barometer: 30.25 inHg , 1024.4 hPa
Clouds: Clear
Visibility: 10 miles , 16 km
2015/04/02 04:06 KMTN 020406Z AUTO 00000KT 10SM CLR 05/02 A3025 RMK AO2
KDMH - Baltimore/Dwntwn, Maryland, USA
Distance from station: SW 12mi, 19km
Updated: Wed, 01-Apr-2015 11:54pm EDT

 
Temperature: 48°F , 9°C
Dew Point: 27°F , -3°C
Humidity: 43%
Barometer: 30.24 inHg , 1024 hPa
2015/04/02 03:54 KDMH 020354Z AUTO 09/M03 A3024 RMK AO1 SLP239 T00941028
 
KBWI - Balto/Wash Intl, Maryland, USA
Distance from station: SSW 20mi, 33km
Updated: Wed, 01-Apr-2015 11:54pm EDT
Clear
Clear
 Wind from calm
Wind: Calm
Temperature: 37°F , 3°C
Dew Point: 27°F , -3°C
Humidity: 65%
Barometer: 30.24 inHg , 1024 hPa
Clouds: Clear
Visibility: 10 miles , 16 km
2015/04/02 03:54 KBWI 020354Z 00000KT 10SM CLR 03/M03 A3024 RMK AO2 SLP239 T00331028
KDMW - Carroll Cnty, Maryland, USA
Distance from station: WNW 30mi, 48km
Updated: Thu, 02-Apr-2015 12:00am EDT
Partly cloudy
Partly cloudy
 Wind from SSE
Wind: SSE 3 mph , 6 km/h
Temperature: 41°F , 5°C
Dew Point: 28°F , -2°C
Humidity: 61%
Barometer: 30.21 inHg , 1023 hPa
Clouds: Partly cloudy
Visibility: 10 miles , 16 km
Cloud details: Partly cloudy 8500 ft
2015/04/02 04:00 KDMW 020400Z AUTO 15003KT 10SM SCT085 05/M02 A3021 RMK AO2
 
KNAK - Annapolis/Naval, Maryland, USA
Distance from station: S 30mi, 48km
Updated: Wed, 01-Apr-2015 11:54pm EDT
Clear
Clear
 Wind from calm
Wind: Calm
Temperature: 41°F , 5°C
Dew Point: 34°F , 1°C
Humidity: 76%
Barometer: 30.24 inHg , 1024 hPa
Clouds: Clear
Visibility: 10 miles , 16 km
2015/04/02 03:54 KNAK 020354Z AUTO 00000KT 10SM CLR 05/01 A3024 RMK AO2 SLP243 T00500011
KW29 - Stevensville, Maryland, USA
Distance from station: SSE 31mi, 50km
Updated: Thu, 02-Apr-2015 12:01am EDT

 Wind from SSE
Wind: SSE 3 mph , 6 km/h
Temperature: 43°F , 6°C
Dew Point: 34°F , 1°C
Humidity: 71%
Barometer: 30.25 inHg , 1024.4 hPa
Visibility: 10 miles , 16 km
2015/04/02 04:01 KW29 020401Z AUTO 16003KT 10SM 06/01 A3025 RMK AO1
 
KCGS - College Park, Maryland, USA
Distance from station: SW 38mi, 61km
Updated: Thu, 02-Apr-2015 12:00am EDT
Clear
Clear
 Wind from calm
Wind: Calm
Temperature: 39°F , 4°C
Dew Point: 32°F , 0°C
Humidity: 75%
Barometer: 30.25 inHg , 1024.4 hPa
Clouds: Clear
Visibility: 10 miles , 16 km
2015/04/02 04:00 KCGS 020400Z AUTO 00000KT 10SM CLR 04/00 A3025 RMK AO1
KGAI - Gaithersburg, Maryland, USA
Distance from station: WSW 40mi, 65km
Updated: Thu, 02-Apr-2015 12:15am EDT
Clear
Clear
 Wind from SSE
Wind: SSE 5 mph , 7 km/h
Temperature: 43°F , 6°C
Wind Chill: 40°F , 4°C
Dew Point: 27°F , -3°C
Humidity: 53%
Barometer: 30.28 inHg , 1025.4 hPa
Clouds: Clear
Visibility: 10 miles , 16 km
2015/04/02 04:15 KGAI 020415Z AUTO 15004KT 10SM CLR 06/M03 A3028 RMK AO1
 
KTHV - York, Pennsylvania, USA
Distance from station: NNW 40mi, 65km
Updated: Wed, 01-Apr-2015 11:53pm EDT
Clear
Clear
 Wind from calm
Wind: Calm
Temperature: 30°F , -1°C
Dew Point: 25°F , -4°C
Humidity: 80%
Barometer: 30.20 inHg , 1022.7 hPa
Clouds: Clear
Visibility: 10 miles , 16 km
2015/04/02 03:53 KTHV 020353Z AUTO 00000KT 10SM CLR M01/M04 A3020 RMK AO2 SLP234 T10061039
KFDK - Frederick, Maryland, USA
Distance from station: W 47mi, 75km
Updated: Thu, 02-Apr-2015 12:00am EDT
Clear
Clear
 Wind from calm
Wind: Calm
Temperature: 36°F , 2°C
Dew Point: 30°F , -1°C
Humidity: 81%
Barometer: 30.26 inHg , 1024.7 hPa
Clouds: Clear
Visibility: 10 miles , 16 km
2015/04/02 04:00 KFDK 020400Z AUTO 00000KT 10SM CLR 02/M01 A3026 RMK AO2
 
KESN - Easton/Newnam, Maryland, USA
Distance from station: SSE 48mi, 78km
Updated: Thu, 02-Apr-2015 12:18am EDT
Clear
Clear
 Wind from calm
Wind: Calm
Temperature: 39°F , 4°C
Dew Point: 32°F , 0°C
Humidity: 75%
Barometer: 30.29 inHg , 1025.7 hPa
Clouds: Clear
Visibility: 10 miles , 16 km
2015/04/02 04:18 KESN 020418Z AUTO 00000KT 10SM CLR 04/00 A3029 RMK AO2 T00420000
KDCA - Washington/Natl, Washington D.c., USA
Distance from station: SW 49mi, 79km
Updated: Wed, 01-Apr-2015 11:52pm EDT
Clear
Clear
 Wind from SSE
Wind: SSE 5 mph , 7 km/h
Temperature: 50°F , 10°C
Wind Chill: 48°F , 9°C
Dew Point: 30°F , -1°C
Humidity: 47%
Barometer: 30.26 inHg , 1024.7 hPa
Clouds: Clear
Visibility: 10 miles , 16 km
2015/04/02 03:52 KDCA 020352Z 16004KT 10SM CLR 10/M01 A3026 RMK AO2 SLP245 T01001011
 
KLNS - Lancaster, Pennsylvania, USA
Distance from station: N 49mi, 79km
Updated: Wed, 01-Apr-2015 11:53pm EDT
Clear
Clear
 Wind from NE
Wind: NE 3 mph , 6 km/h
Temperature: 34°F , 1°C
Dew Point: 27°F , -3°C
Humidity: 75%
Barometer: 30.20 inHg , 1022.7 hPa
Clouds: Clear
Visibility: 10 miles , 16 km
2015/04/02 03:53 KLNS 020353Z AUTO 05003KT 10SM CLR 01/M03 A3020 RMK AO2 SLP230 T00111028
KILG - Wilmington, Delaware, USA
Distance from station: ENE 50mi, 81km
Updated: Wed, 01-Apr-2015 11:51pm EDT
Clear
Clear
 Wind from calm
Wind: Calm
Temperature: 41°F , 5°C
Dew Point: 25°F , -4°C
Humidity: 53%
Barometer: 30.23 inHg , 1023.7 hPa
Clouds: Clear
Visibility: 10 miles , 16 km
2015/04/02 03:51 KILG 020351Z 00000KT 10SM CLR 05/M04 A3023 RMK AO2 SLP238 T00501044